Time;durP1;ratioP1;P1;durP2;ratioP2;P2;SDS_P1;SDS_P2;PMS_P1;PMS_P2;Temp;Humidity;BMP_temperature;BMP_pressure;BME280_temperature;BME280_humidity;BME280_pressure;Samples;Min_cycle;Max_cycle;Signal;HPM_P1;HPM_P2
2022/11/25 00:00:45;;;;;;;9.33;5.37;;;4.90;99.90;;;;;;5007674;28;20440;-78
2022/11/25 00:03:11;;;;;;;18.53;8.13;;;4.90;99.90;;;;;;5008956;28;20455;-77
2022/11/25 00:05:37;;;;;;;12.30;6.63;;;4.80;99.90;;;;;;5008031;28;20216;-76
2022/11/25 00:08:02;;;;;;;17.60;7.63;;;4.90;99.90;;;;;;5007738;28;20245;-79
2022/11/25 00:10:28;;;;;;;22.50;11.33;;;4.80;99.90;;;;;;4974837;28;20244;-78
2022/11/25 00:12:53;;;;;;;23.70;13.43;;;4.70;99.90;;;;;;4991638;28;20578;-79
2022/11/25 00:15:19;;;;;;;24.40;10.57;;;4.70;99.90;;;;;;4991420;28;20204;-79
2022/11/25 00:17:45;;;;;;;20.93;9.70;;;4.50;99.90;;;;;;5007537;28;20207;-79
2022/11/25 00:20:10;;;;;;;17.90;7.83;;;4.40;99.90;;;;;;4974784;28;20296;-79
2022/11/25 00:22:36;;;;;;;17.63;9.03;;;4.50;99.90;;;;;;5008830;28;20192;-79
2022/11/25 00:25:02;;;;;;;14.00;7.90;;;4.50;99.90;;;;;;4994748;28;20196;-76
2022/11/25 00:27:27;;;;;;;12.57;8.73;;;4.40;99.90;;;;;;5010931;28;20644;-76
2022/11/25 00:29:53;;;;;;;28.10;9.17;;;4.30;99.90;;;;;;5012247;28;20251;-75
2022/11/25 00:32:18;;;;;;;58.23;26.87;;;4.10;99.90;;;;;;4994839;28;20631;-79
2022/11/25 00:34:44;;;;;;;34.97;14.97;;;4.00;99.90;;;;;;4978437;28;20239;-79
2022/11/25 00:37:10;;;;;;;24.53;12.67;;;3.80;99.90;;;;;;4995138;28;20189;-80
2022/11/25 00:39:35;;;;;;;21.10;9.30;;;3.80;99.90;;;;;;5011053;28;20560;-80
2022/11/25 00:44:45;;;;;;;16.67;8.67;;;3.80;99.90;;;;;;5012178;28;20278;-78
2022/11/25 00:47:17;;;;;;;12.33;5.93;;;3.70;99.90;;;;;;4994968;28;20521;-77
2022/11/25 00:49:48;;;;;;;14.03;7.43;;;3.80;99.90;;;;;;5010944;28;20217;-79
2022/11/25 00:52:19;;;;;;;16.17;7.20;;;3.90;99.90;;;;;;5011238;28;20441;-79
2022/11/25 00:54:46;;;;;;;13.73;6.20;;;3.90;99.90;;;;;;5010867;28;20438;-76
2022/11/25 00:57:12;;;;;;;5.27;3.10;;;4.00;99.90;;;;;;5012372;28;20514;-76
2022/11/25 00:59:38;;;;;;;6.33;2.33;;;4.30;99.90;;;;;;5010838;28;20441;-76
2022/11/25 01:02:04;;;;;;;7.07;2.30;;;4.50;99.90;;;;;;5012166;28;20442;-80
2022/11/25 01:04:30;;;;;;;5.90;2.23;;;4.60;99.90;;;;;;5010551;28;20284;-79
2022/11/25 01:06:57;;;;;;;7.40;1.83;;;4.80;99.90;;;;;;4994574;28;20201;-79
2022/11/25 01:09:22;;;;;;;10.73;2.60;;;4.90;99.90;;;;;;5010524;28;20259;-78
2022/11/25 01:11:51;;;;;;;6.87;1.50;;;5.00;99.90;;;;;;4994250;28;20451;-79
2022/11/25 01:14:18;;;;;;;5.27;1.60;;;5.00;99.90;;;;;;5010448;28;20224;-79
2022/11/25 01:16:44;;;;;;;7.23;1.67;;;4.90;99.90;;;;;;5011991;28;20439;-78
2022/11/25 01:19:11;;;;;;;5.97;1.30;;;4.90;99.90;;;;;;5010320;28;20435;-79
2022/11/25 01:21:36;;;;;;;8.73;1.70;;;5.00;99.90;;;;;;4994303;28;20697;-79
2022/11/25 01:24:03;;;;;;;4.93;1.63;;;5.30;99.90;;;;;;4977853;28;20432;-79
2022/11/25 01:26:31;;;;;;;2.97;1.90;;;5.10;99.90;;;;;;5012013;28;20189;-78
2022/11/25 01:29:02;;;;;;;9.13;1.70;;;5.10;99.90;;;;;;5010225;28;20474;-78
2022/11/25 01:31:31;;;;;;;3.70;1.43;;;5.30;99.90;;;;;;5010317;28;20446;-79
2022/11/25 01:34:10;;;;;;;5.37;1.80;;;5.30;99.90;;;;;;5010356;28;20430;-79
2022/11/25 01:36:36;;;;;;;6.20;1.60;;;5.30;99.90;;;;;;4994577;28;20474;-79
2022/11/25 01:39:03;;;;;;;5.07;1.13;;;5.40;99.90;;;;;;5010506;28;20428;-78
2022/11/25 01:41:30;;;;;;;6.80;2.73;;;5.40;99.90;;;;;;5011878;28;20930;-78
2022/11/25 01:44:09;;;;;;;20.20;6.90;;;5.30;99.90;;;;;;5010224;28;20803;-77
2022/11/25 01:47:05;;;;;;;12.10;6.17;;;5.00;99.90;;;;;;5011886;28;20431;-81
2022/11/25 01:49:36;;;;;;;14.20;6.73;;;4.80;99.90;;;;;;5011854;28;20550;-78
2022/11/25 01:52:17;;;;;;;13.60;4.13;;;4.70;99.90;;;;;;5011458;28;20427;-77
2022/11/25 01:55:09;;;;;;;8.73;3.10;;;4.60;99.90;;;;;;5009814;28;20431;-77
2022/11/25 01:57:58;;;;;;;4.47;2.70;;;4.70;99.90;;;;;;5005525;28;20527;-78
2022/11/25 02:00:24;;;;;;;5.17;1.60;;;4.70;99.90;;;;;;5009847;28;20806;-77
2022/11/25 02:02:52;;;;;;;3.33;1.60;;;4.80;99.90;;;;;;4994027;28;20501;-77
2022/11/25 02:05:23;;;;;;;6.23;1.87;;;5.00;99.90;;;;;;4977941;28;20920;-78
2022/11/25 02:07:51;;;;;;;2.90;0.90;;;5.10;99.90;;;;;;4994863;28;20435;-80
2022/11/25 02:10:30;;;;;;;8.43;1.43;;;5.20;99.90;;;;;;5011899;28;20486;-79
2022/11/25 02:12:58;;;;;;;3.57;0.97;;;5.40;99.90;;;;;;5010005;28;20456;-78
2022/11/25 02:15:24;;;;;;;9.30;1.70;;;5.50;99.90;;;;;;5009813;28;20412;-78
2022/11/25 02:17:50;;;;;;;4.07;1.00;;;5.70;99.90;;;;;;5010969;28;20486;-79
2022/11/25 02:20:21;;;;;;;3.53;0.93;;;5.60;99.90;;;;;;4977148;28;20471;-79
2022/11/25 02:22:58;;;;;;;7.53;1.67;;;5.60;99.90;;;;;;5009723;28;20734;-78
2022/11/25 02:25:35;;;;;;;3.40;1.50;;;5.60;99.90;;;;;;5019273;28;20435;-78
2022/11/25 02:28:13;;;;;;;3.20;1.00;;;5.50;99.90;;;;;;5013365;28;20543;-79
2022/11/25 02:30:40;;;;;;;6.30;1.40;;;5.40;99.90;;;;;;5013765;28;20479;-78
2022/11/25 02:33:06;;;;;;;4.10;1.77;;;5.40;99.90;;;;;;4981673;28;20435;-78
2022/11/25 02:35:33;;;;;;;7.30;1.43;;;5.40;99.90;;;;;;5014665;28;20451;-80
2022/11/25 02:38:21;;;;;;;6.13;1.60;;;5.30;99.90;;;;;;5013523;28;20519;-79
2022/11/25 02:40:48;;;;;;;2.23;1.17;;;5.30;99.90;;;;;;5013772;28;20467;-78
2022/11/25 02:43:15;;;;;;;14.13;1.80;;;5.30;99.90;;;;;;5014204;28;20434;-79
2022/11/25 02:45:43;;;;;;;16.17;3.73;;;5.30;99.90;;;;;;5011443;28;21000;-79
2022/11/25 02:48:09;;;;;;;7.27;4.37;;;5.20;99.90;;;;;;5010793;28;20428;-78
2022/11/25 02:50:35;;;;;;;12.23;4.67;;;5.00;99.90;;;;;;4994142;28;20490;-79
2022/11/25 02:53:00;;;;;;;8.67;4.43;;;4.80;99.90;;;;;;5010334;28;20255;-79
2022/11/25 02:55:26;;;;;;;16.13;5.67;;;4.70;99.90;;;;;;4994176;28;20449;-80
2022/11/25 02:57:52;;;;;;;16.17;5.60;;;4.60;99.90;;;;;;4994289;28;20554;-77
2022/11/25 03:00:18;;;;;;;17.10;5.80;;;4.40;99.90;;;;;;5010363;28;20209;-78
2022/11/25 03:02:43;;;;;;;8.40;5.57;;;4.30;99.90;;;;;;5011802;28;20205;-78
2022/11/25 03:05:09;;;;;;;16.00;6.30;;;4.10;99.90;;;;;;4994420;28;20435;-78
2022/11/25 03:07:35;;;;;;;14.53;5.77;;;3.90;99.90;;;;;;4978093;28;20200;-79
2022/11/25 03:10:00;;;;;;;10.80;5.73;;;3.90;99.90;;;;;;4994786;28;20220;-78
2022/11/25 03:12:27;;;;;;;14.83;6.10;;;3.80;99.90;;;;;;5010970;28;20278;-77
2022/11/25 03:14:53;;;;;;;18.45;5.97;;;3.70;99.90;;;;;;4994363;28;20199;-78
2022/11/25 03:17:19;;;;;;;11.30;6.57;;;3.50;99.90;;;;;;4994194;28;20300;-79
2022/11/25 03:19:45;;;;;;;12.30;6.10;;;3.40;99.90;;;;;;5010315;28;20717;-78
2022/11/25 03:22:11;;;;;;;12.90;6.40;;;3.20;99.90;;;;;;5011526;28;20462;-78
2022/11/25 03:24:37;;;;;;;16.17;6.27;;;3.20;99.90;;;;;;5010206;28;20184;-79
2022/11/25 03:27:02;;;;;;;15.10;6.80;;;3.00;99.90;;;;;;4993472;28;20201;-78
2022/11/25 03:29:28;;;;;;;9.73;6.30;;;2.90;99.90;;;;;;5009502;28;20211;-78
2022/11/25 03:31:54;;;;;;;10.33;6.03;;;2.90;99.90;;;;;;4992752;28;20459;-77
2022/11/25 03:34:19;;;;;;;14.27;6.53;;;3.00;99.90;;;;;;5009006;28;20260;-77
2022/11/25 03:36:45;;;;;;;8.17;6.20;;;3.00;99.90;;;;;;5010288;28;20185;-79
2022/11/25 03:39:10;;;;;;;13.03;7.40;;;2.90;99.90;;;;;;4975844;28;20208;-79
2022/11/25 03:41:36;;;;;;;13.10;6.80;;;2.90;99.90;;;;;;4992250;28;20582;-79
2022/11/25 03:44:02;;;;;;;14.50;7.37;;;2.90;99.90;;;;;;4991813;28;20250;-79
2022/11/25 03:46:27;;;;;;;13.97;7.13;;;2.80;99.90;;;;;;5008085;28;20193;-80
2022/11/25 03:48:53;;;;;;;18.13;6.20;;;2.80;99.90;;;;;;4991258;28;20242;-79
2022/11/25 03:51:18;;;;;;;9.90;6.30;;;2.80;99.90;;;;;;5007780;28;20260;-79
2022/11/25 03:53:44;;;;;;;18.00;6.83;;;2.80;99.90;;;;;;4991739;28;20298;-77
2022/11/25 03:56:09;;;;;;;16.87;7.00;;;2.90;99.90;;;;;;5008132;28;20201;-82
2022/11/25 03:58:35;;;;;;;14.77;6.90;;;3.10;99.90;;;;;;4975440;28;20283;-78
2022/11/25 04:01:01;;;;;;;10.53;6.27;;;3.00;99.90;;;;;;5009280;28;20207;-77
2022/11/25 04:03:28;;;;;;;18.45;6.78;;;3.00;99.90;;;;;;5007430;28;20274;-77
2022/11/25 04:05:54;;;;;;;14.95;6.78;;;3.00;99.90;;;;;;5009721;28;20215;-78
2022/11/25 04:08:20;;;;;;;17.53;6.73;;;3.00;99.90;;;;;;5007604;28;20207;-78
2022/11/25 04:10:47;;;;;;;14.73;7.22;;;2.90;99.90;;;;;;4991091;28;20255;-76
2022/11/25 04:13:13;;;;;;;23.75;7.00;;;2.80;99.90;;;;;;5008066;28;20188;-77
2022/11/25 04:15:46;;;;;;;13.60;6.83;;;2.90;99.90;;;;;;4991867;28;20192;-78
2022/11/25 04:18:16;;;;;;;11.80;6.07;;;2.90;99.90;;;;;;5009207;28;20196;-79
2022/11/25 04:20:42;;;;;;;11.90;6.30;;;3.00;99.90;;;;;;5008739;28;20621;-78
2022/11/25 04:23:09;;;;;;;13.67;7.43;;;3.00;99.90;;;;;;5008579;28;20441;-79
2022/11/25 04:25:36;;;;;;;13.90;6.40;;;3.00;99.90;;;;;;5009598;28;20225;-79
2022/11/25 04:28:02;;;;;;;14.18;7.30;;;3.00;99.90;;;;;;5007791;28;20458;-78
2022/11/25 04:30:28;;;;;;;14.52;7.35;;;2.90;99.90;;;;;;5009326;28;20315;-79
2022/11/25 04:32:54;;;;;;;22.40;6.77;;;3.00;99.90;;;;;;5009342;28;20341;-79
2022/11/25 04:35:19;;;;;;;9.90;5.87;;;3.10;99.90;;;;;;4991705;28;20187;-83
2022/11/25 04:37:45;;;;;;;15.27;7.50;;;3.10;99.90;;;;;;4991694;28;20610;-84
2022/11/25 04:40:11;;;;;;;27.53;9.53;;;3.20;99.90;;;;;;4975578;28;20207;-84
2022/11/25 04:42:38;;;;;;;19.23;8.23;;;3.20;99.90;;;;;;4991569;28;20428;-82
2022/11/25 04:45:15;;;;;;;17.20;8.05;;;3.10;99.90;;;;;;4991208;28;21029;-77
2022/11/25 04:47:42;;;;;;;17.00;11.18;;;3.10;99.90;;;;;;5009281;28;20191;-79
2022/11/25 04:50:17;;;;;;;14.98;9.10;;;3.00;99.90;;;;;;5007244;28;20333;-78
2022/11/25 04:52:43;;;;;;;19.70;10.13;;;3.00;99.90;;;;;;5009021;28;20693;-79
2022/11/25 04:55:09;;;;;;;11.20;8.03;;;3.00;99.90;;;;;;5007463;28;20179;-79
2022/11/25 04:57:34;;;;;;;9.33;3.63;;;3.10;99.90;;;;;;5009279;28;20219;-78
2022/11/25 05:00:00;;;;;;;10.23;2.20;;;3.50;99.90;;;;;;5007523;28;20266;-78
2022/11/25 05:02:27;;;;;;;4.57;1.40;;;3.90;99.90;;;;;;5007182;28;20195;-79
2022/11/25 05:04:54;;;;;;;2.17;1.27;;;4.20;99.90;;;;;;5008808;28;20185;-81
2022/11/25 05:07:21;;;;;;;3.40;1.30;;;4.50;99.90;;;;;;5005947;28;20196;-80
2022/11/25 05:09:47;;;;;;;5.13;1.40;;;4.80;99.90;;;;;;5008836;28;20553;-82
2022/11/25 05:12:19;;;;;;;2.73;1.40;;;4.90;99.90;;;;;;5009366;28;20956;-81
2022/11/25 05:14:45;;;;;;;4.53;1.60;;;5.10;99.90;;;;;;5011207;28;20177;-81
2022/11/25 05:17:17;;;;;;;4.67;1.47;;;5.20;99.90;;;;;;5010086;28;21019;-82
2022/11/25 05:19:43;;;;;;;10.20;1.90;;;5.30;99.90;;;;;;5010542;28;20424;-83
2022/11/25 05:22:17;;;;;;;4.33;1.30;;;5.40;99.90;;;;;;5010697;28;20505;-82
2022/11/25 05:24:43;;;;;;;4.57;1.77;;;5.40;99.90;;;;;;5010226;28;20439;-82
2022/11/25 05:27:09;;;;;;;6.40;1.53;;;5.40;99.90;;;;;;4977765;28;20858;-80
2022/11/25 05:29:36;;;;;;;2.33;1.00;;;5.50;99.90;;;;;;5010424;28;20522;-81
2022/11/25 05:32:02;;;;;;;3.90;1.10;;;5.70;99.90;;;;;;4993409;28;20985;-82
2022/11/25 05:34:28;;;;;;;5.30;1.10;;;5.70;99.90;;;;;;5009483;28;20424;-82
2022/11/25 05:36:54;;;;;;;5.30;1.30;;;5.80;99.90;;;;;;5009741;28;20431;-81
2022/11/25 05:39:20;;;;;;;1.80;1.07;;;6.00;99.90;;;;;;4993389;28;20436;-82
2022/11/25 05:41:45;;;;;;;4.83;1.43;;;5.80;99.90;;;;;;5009752;28;20216;-81
2022/11/25 05:44:11;;;;;;;1.73;1.10;;;5.80;99.90;;;;;;4977055;28;20477;-82
2022/11/25 05:46:36;;;;;;;3.57;1.43;;;5.90;99.90;;;;;;4976966;28;20189;-82
2022/11/25 05:49:02;;;;;;;2.77;1.20;;;5.80;99.90;;;;;;5010626;28;20300;-81
2022/11/25 05:51:28;;;;;;;3.53;1.40;;;5.80;99.90;;;;;;5008857;28;20633;-81
2022/11/25 05:53:55;;;;;;;4.40;1.93;;;5.80;99.90;;;;;;4992380;28;20185;-82
2022/11/25 05:56:20;;;;;;;2.37;1.30;;;5.90;99.90;;;;;;4992880;28;20572;-81
2022/11/25 05:58:46;;;;;;;6.33;1.60;;;6.00;99.90;;;;;;5010027;28;20428;-81
2022/11/25 06:01:14;;;;;;;1.77;1.20;;;6.00;99.90;;;;;;5009004;28;20236;-80
2022/11/25 06:03:40;;;;;;;3.10;1.33;;;6.10;99.90;;;;;;5009666;28;20193;-80
2022/11/25 06:06:07;;;;;;;3.30;1.67;;;6.20;99.90;;;;;;4992645;28;20443;-80
2022/11/25 06:08:33;;;;;;;2.53;1.73;;;6.30;99.90;;;;;;5009376;28;20436;-81
2022/11/25 06:11:02;;;;;;;2.23;1.53;;;6.30;99.90;;;;;;5008899;28;20475;-81
2022/11/25 06:13:28;;;;;;;3.10;1.33;;;6.40;99.90;;;;;;4992875;28;20482;-80
2022/11/25 06:15:53;;;;;;;4.40;1.70;;;6.40;99.90;;;;;;4976507;28;20432;-80
2022/11/25 06:18:19;;;;;;;3.50;1.90;;;6.40;99.90;;;;;;4992585;28;20201;-80
2022/11/25 06:20:45;;;;;;;3.43;2.30;;;6.40;99.90;;;;;;4992246;28;20212;-80
2022/11/25 06:23:10;;;;;;;3.00;1.80;;;6.50;99.90;;;;;;5008892;28;20224;-80
2022/11/25 06:25:36;;;;;;;4.23;1.77;;;6.50;99.90;;;;;;4992135;28;20568;-81
2022/11/25 06:28:02;;;;;;;2.57;1.60;;;6.50;99.90;;;;;;4992150;28;20673;-80
2022/11/25 06:30:29;;;;;;;3.50;2.30;;;6.60;99.90;;;;;;5009817;28;20223;-80
2022/11/25 06:32:54;;;;;;;8.00;5.80;;;6.80;99.90;;;;;;5009888;28;20416;-80
2022/11/25 06:35:20;;;;;;;10.43;6.80;;;6.30;99.90;;;;;;4992318;28;20436;-81
2022/11/25 06:37:46;;;;;;;11.97;6.77;;;5.80;99.90;;;;;;4977441;28;20582;-81
2022/11/25 06:40:12;;;;;;;15.40;7.90;;;5.20;99.90;;;;;;5008894;28;20216;-81
2022/11/25 06:42:38;;;;;;;12.57;7.30;;;4.70;99.90;;;;;;5008844;28;20189;-80
2022/11/25 06:45:04;;;;;;;23.00;9.30;;;4.30;99.90;;;;;;5008845;28;20434;-82
2022/11/25 06:47:30;;;;;;;12.80;7.77;;;4.10;99.90;;;;;;5009632;28;20436;-81
2022/11/25 06:49:56;;;;;;;16.50;9.30;;;3.90;99.90;;;;;;5012053;28;20641;-82
2022/11/25 06:52:21;;;;;;;11.50;7.80;;;3.70;99.90;;;;;;4976255;28;20557;-82
2022/11/25 06:54:48;;;;;;;14.03;8.30;;;3.70;99.90;;;;;;4976477;28;20195;-81
2022/11/25 06:57:17;;;;;;;13.77;7.27;;;3.50;99.90;;;;;;4992903;28;20219;-82
2022/11/25 06:59:43;;;;;;;14.57;9.45;;;3.40;99.90;;;;;;5008637;28;20439;-80
2022/11/25 07:02:10;;;;;;;20.30;8.20;;;3.40;99.90;;;;;;4992827;28;20670;-81
2022/11/25 07:04:36;;;;;;;18.53;8.90;;;3.40;99.90;;;;;;5008941;28;20192;-81
2022/11/25 07:07:02;;;;;;;15.68;7.30;;;3.40;99.90;;;;;;4992468;28;20424;-81
2022/11/25 07:09:28;;;;;;;22.02;8.65;;;3.40;99.90;;;;;;4992559;28;20610;-80
2022/11/25 07:11:54;;;;;;;13.77;7.83;;;3.50;99.90;;;;;;5008730;28;20206;-81
2022/11/25 07:14:19;;;;;;;12.00;7.40;;;3.50;99.90;;;;;;4992352;28;20234;-81
2022/11/25 07:16:45;;;;;;;14.63;7.83;;;3.50;99.90;;;;;;5008950;28;20187;-81
2022/11/25 07:19:14;;;;;;;16.33;8.17;;;3.40;99.90;;;;;;5008603;28;21047;-80
2022/11/25 07:21:43;;;;;;;10.07;5.50;;;3.50;99.90;;;;;;5009917;28;20438;-81
2022/11/25 07:24:10;;;;;;;8.60;3.60;;;3.50;99.90;;;;;;4992369;28;20510;-80
2022/11/25 07:26:39;;;;;;;10.35;5.18;;;3.90;99.90;;;;;;5009679;28;20427;-81
2022/11/25 07:29:08;;;;;;;8.43;3.20;;;4.20;99.90;;;;;;5009815;28;20212;-81
2022/11/25 07:31:36;;;;;;;6.87;3.13;;;4.60;99.90;;;;;;5007819;28;20447;-80
2022/11/25 07:34:13;;;;;;;4.30;2.30;;;4.90;99.90;;;;;;5008033;28;20449;-80
2022/11/25 07:36:40;;;;;;;16.07;6.80;;;5.10;99.90;;;;;;5008632;28;20450;-81
2022/11/25 07:39:11;;;;;;;20.07;9.90;;;5.30;99.90;;;;;;4991832;28;20846;-81
2022/11/25 07:41:37;;;;;;;19.63;11.83;;;5.00;99.90;;;;;;5008053;28;21020;-80
2022/11/25 07:44:04;;;;;;;19.00;12.30;;;4.80;99.90;;;;;;5009508;28;20416;-80
2022/11/25 07:46:33;;;;;;;14.97;10.97;;;4.70;99.90;;;;;;5009218;28;20434;-80
2022/11/25 07:49:05;;;;;;;15.97;9.80;;;4.70;99.90;;;;;;4991506;28;20895;-81
2022/11/25 07:51:36;;;;;;;18.47;10.57;;;4.70;99.90;;;;;;5007743;28;20471;-81
2022/11/25 07:54:05;;;;;;;15.63;10.03;;;4.70;99.90;;;;;;5009619;28;20422;-80
2022/11/25 07:56:33;;;;;;;14.83;9.00;;;4.70;99.90;;;;;;5008118;28;20427;-81
2022/11/25 07:58:58;;;;;;;19.70;8.50;;;4.80;99.90;;;;;;5008169;28;20430;-81
2022/11/25 08:01:27;;;;;;;18.57;10.63;;;4.80;99.90;;;;;;5009166;28;20447;-80
2022/11/25 08:03:54;;;;;;;20.90;11.40;;;4.80;99.90;;;;;;4992288;28;20212;-81
2022/11/25 08:06:25;;;;;;;16.63;8.03;;;4.70;99.90;;;;;;5009246;28;20502;-81
2022/11/25 08:08:54;;;;;;;14.13;8.50;;;4.70;99.90;;;;;;4991655;28;20412;-81
2022/11/25 08:11:23;;;;;;;15.30;7.30;;;4.70;99.90;;;;;;4994352;28;20524;-80
2022/11/25 08:13:49;;;;;;;11.27;6.93;;;4.80;99.90;;;;;;5009872;28;20450;-80
2022/11/25 08:16:18;;;;;;;14.80;7.63;;;4.70;99.90;;;;;;5009586;28;20197;-81
2022/11/25 08:18:44;;;;;;;16.13;9.33;;;4.80;99.90;;;;;;5011044;28;20440;-81
2022/11/25 08:21:11;;;;;;;36.57;15.73;;;4.90;99.90;;;;;;4992759;28;20448;-80
2022/11/25 08:23:39;;;;;;;40.50;16.20;;;4.90;99.90;;;;;;5009459;28;20421;-80
2022/11/25 08:26:07;;;;;;;20.80;11.83;;;5.00;99.90;;;;;;5009017;28;20418;-80
2022/11/25 08:28:33;;;;;;;21.63;9.50;;;5.00;99.90;;;;;;5009267;28;20422;-80
2022/11/25 08:31:17;;;;;;;22.07;8.50;;;5.00;99.90;;;;;;4993190;28;20452;-81
2022/11/25 08:33:43;;;;;;;11.37;6.33;;;5.10;99.90;;;;;;5008825;28;20767;-81
2022/11/25 08:36:10;;;;;;;13.50;7.40;;;5.10;99.90;;;;;;5009435;28;20408;-81
2022/11/25 08:38:35;;;;;;;10.60;6.77;;;5.20;99.90;;;;;;5008039;28;20478;-80
2022/11/25 08:41:01;;;;;;;12.30;6.60;;;5.20;99.90;;;;;;4975294;28;20976;-79
2022/11/25 08:43:27;;;;;;;11.00;6.33;;;5.20;99.90;;;;;;4992218;28;20436;-80
2022/11/25 08:45:53;;;;;;;11.90;7.23;;;5.20;99.90;;;;;;5012893;28;20181;-80
2022/11/25 08:48:20;;;;;;;13.77;6.80;;;5.20;99.90;;;;;;5011483;28;21024;-80
2022/11/25 08:50:53;;;;;;;14.37;5.70;;;5.20;99.90;;;;;;5010884;28;20225;-81
2022/11/25 08:53:20;;;;;;;17.50;6.17;;;5.40;99.90;;;;;;5012405;28;20431;-81
2022/11/25 08:55:45;;;;;;;8.37;4.90;;;5.40;99.90;;;;;;4995237;28;20812;-81
2022/11/25 08:58:12;;;;;;;11.23;5.80;;;5.50;99.90;;;;;;5011861;28;20416;-81
2022/11/25 09:00:39;;;;;;;15.83;8.57;;;5.90;99.90;;;;;;5011698;28;20201;-82
2022/11/25 09:03:05;;;;;;;12.60;7.10;;;6.00;99.90;;;;;;5011433;28;20486;-81
2022/11/25 09:05:34;;;;;;;15.70;8.40;;;6.20;99.90;;;;;;5013078;28;20432;-81
2022/11/25 09:08:02;;;;;;;16.90;8.60;;;6.60;99.90;;;;;;4994940;28;20195;-82
2022/11/25 09:10:27;;;;;;;15.00;9.70;;;6.90;99.90;;;;;;5011452;28;20836;-81
2022/11/25 09:12:53;;;;;;;11.10;7.10;;;7.20;99.90;;;;;;4994024;28;20444;-82
2022/11/25 09:15:19;;;;;;;9.27;6.40;;;7.50;99.90;;;;;;4993963;28;20193;-81
2022/11/25 09:17:44;;;;;;;9.33;6.30;;;7.60;99.90;;;;;;4994039;28;20201;-82
2022/11/25 09:20:10;;;;;;;17.17;6.00;;;7.90;99.90;;;;;;4993882;28;20217;-81
2022/11/25 09:22:36;;;;;;;9.60;5.67;;;8.40;99.90;;;;;;4994279;28;20618;-81
2022/11/25 09:25:01;;;;;;;10.50;6.27;;;8.70;99.90;;;;;;5010596;28;20454;-81
2022/11/25 09:27:27;;;;;;;10.77;5.87;;;8.70;99.90;;;;;;5010726;28;20189;-81
2022/11/25 09:29:53;;;;;;;10.90;6.63;;;8.50;99.90;;;;;;4993959;28;20252;-81
2022/11/25 09:32:18;;;;;;;17.97;10.40;;;8.40;99.90;;;;;;5010361;28;20181;-81
2022/11/25 09:34:44;;;;;;;17.93;9.13;;;8.20;99.90;;;;;;4993667;28;20192;-81
2022/11/25 09:37:13;;;;;;;16.27;8.07;;;8.10;99.90;;;;;;4977588;28;20189;-80
2022/11/25 09:39:39;;;;;;;12.43;7.27;;;8.10;99.90;;;;;;5010376;28;20197;-81
2022/11/25 09:48:44;;;;;;;18.93;8.17;;;8.60;99.90;;;;;;5010398;28;20426;-83
2022/11/25 09:51:21;;;;;;;18.40;7.87;;;9.70;99.90;;;;;;5009870;28;21326;-82
2022/11/25 09:54:02;;;;;;;12.70;5.70;;;10.90;99.90;;;;;;5009773;28;20425;-81
2022/11/25 09:56:34;;;;;;;7.30;5.13;;;11.40;99.90;;;;;;5010382;28;20464;-81
2022/11/25 09:59:08;;;;;;;12.33;7.00;;;11.60;99.90;;;;;;5011402;28;20408;-82
2022/11/25 10:01:48;;;;;;;13.63;7.53;;;11.70;99.90;;;;;;5011461;28;20440;-81
2022/11/25 10:04:25;;;;;;;15.70;7.57;;;12.40;99.90;;;;;;5010244;28;20802;-81
2022/11/25 10:06:56;;;;;;;10.30;6.93;;;12.70;99.90;;;;;;5011060;28;20399;-81
2022/11/25 10:09:29;;;;;;;17.40;8.03;;;12.60;99.90;;;;;;4992634;28;20505;-81
2022/11/25 10:12:16;;;;;;;8.20;5.70;;;12.50;99.90;;;;;;5009245;28;20500;-82
2022/11/25 10:14:50;;;;;;;9.73;2.00;;;12.80;99.90;;;;;;5009321;28;20948;-81
2022/11/25 10:17:48;;;;;;;6.13;1.70;;;12.20;99.20;;;;;;5008964;28;20451;-81
2022/11/25 10:20:25;;;;;;;5.13;1.93;;;11.50;99.90;;;;;;4972837;28;20448;-81
2022/11/25 10:23:04;;;;;;;5.13;2.00;;;11.50;99.90;;;;;;5008668;28;20421;-82
2022/11/25 10:25:36;;;;;;;3.53;1.80;;;11.40;99.90;;;;;;5008660;28;20700;-81
2022/11/25 10:28:16;;;;;;;5.47;2.17;;;12.00;99.90;;;;;;5010397;28;21125;-82
2022/11/25 10:30:45;;;;;;;9.73;1.87;;;12.50;99.90;;;;;;5008671;28;20500;-81
2022/11/25 10:33:20;;;;;;;3.80;1.80;;;13.10;99.90;;;;;;5008319;28;20933;-81
2022/11/25 10:35:54;;;;;;;4.20;1.70;;;13.70;99.10;;;;;;5009787;28;20431;-80
2022/11/25 10:38:29;;;;;;;5.40;1.93;;;15.30;95.10;;;;;;5008308;28;20508;-82
2022/11/25 10:40:55;;;;;;;3.90;1.60;;;16.30;93.30;;;;;;5008526;28;20825;-81
2022/11/25 10:43:21;;;;;;;5.30;1.30;;;16.50;91.70;;;;;;5008002;28;20437;-80
2022/11/25 10:46:10;;;;;;;4.80;1.63;;;16.40;90.90;;;;;;5008123;28;20208;-81
2022/11/25 10:48:53;;;;;;;5.90;3.40;;;16.10;90.20;;;;;;5007723;28;20436;-81
2022/11/25 10:51:44;;;;;;;5.07;2.00;;;15.70;91.80;;;;;;5007693;28;20456;-80
2022/11/25 10:54:25;;;;;;;3.73;1.73;;;15.80;91.80;;;;;;5009579;28;20424;-81
2022/11/25 10:56:53;;;;;;;3.50;1.37;;;15.50;91.80;;;;;;5007667;28;20424;-81
2022/11/25 10:59:30;;;;;;;19.80;9.47;;;15.90;91.00;;;;;;5007715;28;20960;-81
2022/11/25 11:02:14;;;;;;;13.53;8.83;;;16.20;93.00;;;;;;5007828;28;20426;-81
2022/11/25 11:05:09;;;;;;;17.30;8.77;;;16.00;92.20;;;;;;5007665;28;20455;-82
2022/11/25 11:07:41;;;;;;;14.20;7.50;;;15.20;93.70;;;;;;5007179;28;20427;-81
2022/11/25 11:10:18;;;;;;;10.30;4.27;;;14.50;96.00;;;;;;5009651;28;20591;-82
2022/11/25 11:12:57;;;;;;;13.20;5.00;;;13.90;95.70;;;;;;5007956;28;20817;-80
2022/11/25 11:15:26;;;;;;;10.53;4.33;;;13.60;98.10;;;;;;5007990;28;20431;-82
2022/11/25 11:17:57;;;;;;;3.67;1.43;;;13.30;99.00;;;;;;5007529;28;20461;-83
2022/11/25 11:20:26;;;;;;;6.87;1.83;;;13.10;98.50;;;;;;5007847;28;20582;-82
2022/11/25 11:23:00;;;;;;;3.27;1.50;;;12.80;99.10;;;;;;5007741;28;20444;-82
2022/11/25 11:25:31;;;;;;;5.53;2.40;;;12.90;99.40;;;;;;5008341;28;20443;-82
2022/11/25 11:27:58;;;;;;;3.93;1.50;;;12.50;99.90;;;;;;5007724;28;20913;-82
2022/11/25 11:30:29;;;;;;;5.17;2.20;;;12.20;99.90;;;;;;5007484;28;20541;-81
2022/11/25 11:32:55;;;;;;;6.67;2.90;;;12.00;99.90;;;;;;5009117;28;20478;-80
2022/11/25 11:35:24;;;;;;;4.97;2.20;;;11.60;99.90;;;;;;5008993;28;21110;-83
2022/11/25 11:37:53;;;;;;;8.97;2.07;;;11.40;99.90;;;;;;5007603;28;20179;-82
2022/11/25 11:40:45;;;;;;;6.33;2.40;;;11.40;99.90;;;;;;4991397;28;20491;-83
2022/11/25 11:43:39;;;;;;;2.40;1.70;;;11.20;99.90;;;;;;4991583;28;20435;-82
2022/11/25 11:46:30;;;;;;;8.67;1.90;;;11.10;99.90;;;;;;5007716;28;20545;-82
2022/11/25 11:49:01;;;;;;;7.77;2.30;;;11.00;99.90;;;;;;5008725;28;20439;-82
2022/11/25 11:51:59;;;;;;;4.57;2.30;;;10.80;99.90;;;;;;5008867;28;20445;-82
2022/11/25 11:54:42;;;;;;;4.90;2.40;;;10.60;99.90;;;;;;5008086;28;20426;-83
2022/11/25 11:57:29;;;;;;;3.33;1.90;;;10.40;99.90;;;;;;5007830;28;20532;-82
2022/11/25 11:59:55;;;;;;;4.87;2.47;;;10.20;99.90;;;;;;5007765;28;20425;-82
2022/11/25 12:02:33;;;;;;;5.30;2.90;;;10.10;99.90;;;;;;5008074;28;20943;-82
2022/11/25 12:05:10;;;;;;;7.43;2.83;;;10.00;99.90;;;;;;5008075;28;20426;-82
2022/11/25 12:08:12;;;;;;;6.50;2.50;;;10.00;99.90;;;;;;5009412;28;20416;-82
2022/11/25 12:10:44;;;;;;;6.43;2.43;;;10.00;99.90;;;;;;5009151;28;20482;-82
2022/11/25 12:13:26;;;;;;;5.43;2.77;;;9.90;99.90;;;;;;5008063;28;20491;-82
2022/11/25 12:16:18;;;;;;;6.27;3.30;;;9.90;99.90;;;;;;5007871;28;20535;-82
2022/11/25 12:18:58;;;;;;;8.00;3.30;;;9.80;99.90;;;;;;5010998;28;20508;-82
2022/11/25 12:21:36;;;;;;;10.27;4.20;;;9.70;99.90;;;;;;5012024;28;20498;-82
2022/11/25 12:24:20;;;;;;;9.50;2.87;;;9.70;99.90;;;;;;5013507;28;20495;-81
2022/11/25 12:27:02;;;;;;;8.07;3.20;;;9.70;99.90;;;;;;5011964;28;20479;-82
2022/11/25 12:29:33;;;;;;;7.30;2.50;;;9.50;99.90;;;;;;5011768;28;20551;-82
2022/11/25 12:32:20;;;;;;;8.03;4.30;;;9.50;99.90;;;;;;5013163;28;20511;-82
2022/11/25 12:34:54;;;;;;;10.13;3.60;;;9.40;99.90;;;;;;5011870;28;20409;-82
2022/11/25 12:37:30;;;;;;;6.20;2.97;;;9.40;99.90;;;;;;5012335;28;20432;-82
2022/11/25 12:40:06;;;;;;;11.43;3.20;;;9.40;99.90;;;;;;5011653;28;20431;-81
2022/11/25 12:42:35;;;;;;;8.17;3.20;;;9.40;99.90;;;;;;5012838;28;20421;-82
2022/11/25 12:45:06;;;;;;;5.57;2.57;;;9.40;99.90;;;;;;4995752;28;20532;-82
2022/11/25 12:47:32;;;;;;;6.43;2.77;;;9.40;99.90;;;;;;5011441;28;20440;-82
2022/11/25 12:49:58;;;;;;;8.17;3.43;;;9.50;99.90;;;;;;4978432;28;20904;-82
2022/11/25 12:52:48;;;;;;;7.93;3.10;;;9.30;99.90;;;;;;4978780;28;20412;-82
2022/11/25 12:55:22;;;;;;;5.40;2.03;;;9.40;99.90;;;;;;5011801;28;20412;-82
2022/11/25 12:58:13;;;;;;;9.50;2.93;;;9.50;99.90;;;;;;4995501;28;20546;-82
2022/11/25 13:01:16;;;;;;;6.27;3.07;;;9.30;99.90;;;;;;5011739;28;20614;-82
2022/11/25 13:03:47;;;;;;;6.00;2.80;;;9.20;99.90;;;;;;5011951;28;20425;-82
2022/11/25 13:06:29;;;;;;;9.10;2.70;;;9.20;99.90;;;;;;5011779;28;20971;-83
2022/11/25 13:09:26;;;;;;;5.90;3.23;;;9.20;99.90;;;;;;5011999;28;20519;-82
2022/11/25 13:12:04;;;;;;;7.50;2.37;;;9.20;99.90;;;;;;5011708;28;20486;-82
2022/11/25 13:14:48;;;;;;;5.27;2.43;;;9.20;99.90;;;;;;5012030;28;20418;-81